Time;durP1;ratioP1;P1;durP2;ratioP2;P2;SDS_P1;SDS_P2;PMS_P1;PMS_P2;Temp;Humidity;BMP_temperature;BMP_pressure;BME280_temperature;BME280_humidity;BME280_pressure;Samples;Min_cycle;Max_cycle;Signal;HPM_P1;HPM_P2
2022/03/29 00:02:05;;;;;;;31.40;18.50;;;;;;;6.82;80.27;100868.75;4989252;28;20230;-70
2022/03/29 00:04:31;;;;;;;27.43;17.67;;;;;;;6.81;80.28;100869.66;4990987;28;20646;-70
2022/03/29 00:06:58;;;;;;;29.33;19.47;;;;;;;6.80;80.18;100868.84;4991400;28;20231;-70
2022/03/29 00:09:24;;;;;;;30.73;19.10;;;;;;;6.78;79.92;100861.88;4991982;28;20215;-71
2022/03/29 00:11:51;;;;;;;32.23;19.53;;;;;;;6.77;80.47;100863.69;4991545;28;20207;-70
2022/03/29 00:14:18;;;;;;;34.07;20.30;;;;;;;6.77;80.24;100862.81;4991677;28;20199;-70
2022/03/29 00:16:46;;;;;;;37.07;19.80;;;;;;;6.75;80.17;100857.59;4990862;28;20740;-71
2022/03/29 00:19:13;;;;;;;32.20;19.93;;;;;;;6.75;80.03;100852.28;4981218;28;20208;-71
2022/03/29 00:21:40;;;;;;;37.03;21.07;;;;;;;6.73;80.31;100848.84;4972005;28;20243;-70
2022/03/29 00:24:07;;;;;;;32.97;20.73;;;;;;;6.73;80.25;100848.00;4971881;28;20701;-70
2022/03/29 00:26:33;;;;;;;35.87;19.87;;;;;;;6.71;80.05;100845.41;4971760;28;20698;-70
2022/03/29 00:29:00;;;;;;;32.23;19.83;;;;;;;6.71;79.93;100840.13;4972050;28;20215;-70
2022/03/29 00:31:26;;;;;;;37.27;20.57;;;;;;;6.70;80.13;100838.41;4972054;28;20200;-70
2022/03/29 00:33:54;;;;;;;34.57;19.37;;;;;;;6.69;80.26;100830.53;4981497;28;20293;-71
2022/03/29 00:36:21;;;;;;;29.20;18.17;;;;;;;6.66;79.82;100835.94;4990919;28;20223;-70
2022/03/29 00:38:47;;;;;;;29.17;18.70;;;;;;;6.65;79.91;100834.22;4991253;28;20214;-71
2022/03/29 00:41:15;;;;;;;32.43;19.10;;;;;;;6.61;79.80;100830.88;4990568;28;20239;-70
2022/03/29 00:43:41;;;;;;;34.40;19.13;;;;;;;6.59;80.13;100827.44;4990883;28;20499;-71
2022/03/29 00:46:08;;;;;;;32.93;19.27;;;;;;;6.56;79.99;100832.84;5001683;28;20202;-70
2022/03/29 00:48:34;;;;;;;33.30;19.30;;;;;;;6.54;80.07;100829.41;4992813;28;20686;-70
2022/03/29 00:51:02;;;;;;;31.27;18.73;;;;;;;6.50;79.73;100826.03;4971469;28;20204;-70
2022/03/29 00:53:29;;;;;;;32.07;19.13;;;;;;;6.48;80.00;100832.31;4972057;28;20201;-70
2022/03/29 00:55:56;;;;;;;30.93;19.57;;;;;;;6.45;80.03;100828.00;4972294;28;20212;-70
2022/03/29 00:58:22;;;;;;;36.10;20.43;;;;;;;6.44;79.92;100825.47;4972000;28;20216;-70
2022/03/29 01:00:49;;;;;;;34.40;18.60;;;;;;;6.42;80.56;100822.03;4978998;28;20220;-70
2022/03/29 01:03:16;;;;;;;40.47;21.77;;;;;;;6.40;80.15;100819.44;4987882;28;20204;-70
2022/03/29 01:05:43;;;;;;;41.77;22.20;;;;;;;6.40;80.57;100822.09;4971870;28;20740;-70
2022/03/29 01:08:11;;;;;;;39.27;21.53;;;;;;;6.38;80.50;100812.50;4971380;28;20817;-70
2022/03/29 01:10:38;;;;;;;36.23;21.07;;;;;;;6.37;80.70;100808.13;4971842;28;20632;-71
2022/03/29 01:13:06;;;;;;;41.67;20.97;;;;;;;6.38;81.04;100812.50;4972182;28;20216;-70
2022/03/29 01:15:36;;;;;;;40.27;22.50;;;;;;;6.35;80.66;100809.97;4971577;28;20433;-71
2022/03/29 01:18:02;;;;;;;43.43;23.30;;;;;;;6.36;80.56;100814.34;4971599;28;20224;-70
2022/03/29 01:20:32;;;;;;;45.53;24.23;;;;;;;6.36;80.49;100811.69;4971526;28;20681;-70
2022/03/29 01:23:02;;;;;;;43.20;23.73;;;;;;;6.35;80.95;100807.34;4972462;28;20216;-70
2022/03/29 01:25:33;;;;;;;45.97;24.67;;;;;;;6.34;80.77;100806.47;4972837;28;20204;-70
2022/03/29 01:28:02;;;;;;;37.17;22.30;;;;;;;6.34;81.31;100806.47;4971292;28;20231;-71
2022/03/29 01:30:28;;;;;;;41.50;23.07;;;;;;;6.34;81.31;100803.81;4971406;28;20207;-70
2022/03/29 01:32:55;;;;;;;45.53;24.50;;;;;;;6.32;81.27;100800.38;4994532;28;20219;-70
2022/03/29 01:35:24;;;;;;;48.20;24.50;;;;;;;6.32;81.16;100796.88;5004063;28;20209;-71
2022/03/29 01:37:51;;;;;;;48.73;25.13;;;;;;;6.32;81.36;100791.59;5010372;28;20237;-70
2022/03/29 01:40:22;;;;;;;46.53;25.23;;;;;;;6.30;81.75;100786.34;5008066;28;20249;-70
2022/03/29 01:42:51;;;;;;;46.70;24.40;;;;;;;6.30;81.50;100786.34;4990850;28;20215;-70
2022/03/29 01:45:19;;;;;;;43.80;23.07;;;;;;;6.30;81.33;100793.44;4991154;28;20793;-71
2022/03/29 01:47:45;;;;;;;43.97;23.73;;;;;;;6.28;81.58;100788.22;4990635;28;20229;-70
2022/03/29 01:50:13;;;;;;;46.60;24.67;;;;;;;6.26;81.56;100777.72;4990140;28;20214;-70
2022/03/29 01:52:40;;;;;;;55.10;27.60;;;;;;;6.27;81.64;100782.06;4990704;28;20204;-71
2022/03/29 01:55:08;;;;;;;53.80;28.13;;;;;;;6.27;81.79;100783.84;4990178;28;20743;-71
2022/03/29 01:57:36;;;;;;;53.83;27.83;;;;;;;6.26;82.05;100780.38;4990417;28;20223;-70
2022/03/29 02:02:50;;;;;;;49.53;25.40;;;;;;;6.26;82.02;100784.81;4984393;28;20239;-71
2022/03/29 02:05:17;;;;;;;50.50;26.30;;;;;;;6.26;82.17;100774.22;4975259;28;20599;-70
2022/03/29 02:07:44;;;;;;;49.27;24.43;;;;;;;6.26;81.96;100774.22;4970967;28;20749;-70
2022/03/29 02:10:11;;;;;;;47.83;25.00;;;;;;;6.24;82.61;100771.63;4971182;28;20713;-70
2022/03/29 02:12:39;;;;;;;53.73;26.93;;;;;;;6.25;82.20;100776.00;4971180;28;20275;-70
2022/03/29 02:15:07;;;;;;;48.07;25.73;;;;;;;6.24;82.32;100774.28;4971330;28;20232;-70
2022/03/29 02:17:33;;;;;;;50.47;26.20;;;;;;;6.24;82.63;100769.00;4987023;28;20223;-70
2022/03/29 02:20:00;;;;;;;51.43;27.07;;;;;;;6.24;82.40;100769.00;5002862;28;20203;-71
2022/03/29 02:22:26;;;;;;;52.13;26.20;;;;;;;6.24;82.36;100769.00;5010342;28;20231;-70
2022/03/29 02:24:53;;;;;;;51.90;26.20;;;;;;;6.24;82.41;100771.63;5010679;28;20217;-70
2022/03/29 02:27:19;;;;;;;53.50;26.67;;;;;;;6.25;82.17;100778.66;5009867;28;20234;-71
2022/03/29 02:29:47;;;;;;;52.63;26.87;;;;;;;6.25;82.57;100769.84;5006394;28;20220;-71
2022/03/29 02:32:14;;;;;;;53.33;26.23;;;;;;;6.25;82.49;100775.16;4998279;28;20202;-71
2022/03/29 02:34:40;;;;;;;50.70;25.30;;;;;;;6.24;82.95;100773.44;4990394;28;20215;-70
2022/03/29 02:37:07;;;;;;;52.90;26.20;;;;;;;6.21;82.86;100763.84;4990371;28;20227;-71
2022/03/29 02:39:33;;;;;;;49.47;25.97;;;;;;;6.21;82.95;100766.47;4990523;28;20211;-71
2022/03/29 02:42:00;;;;;;;43.77;23.93;;;;;;;6.20;83.03;100766.53;4990328;28;20606;-71
2022/03/29 02:44:27;;;;;;;52.50;25.23;;;;;;;6.20;83.15;100767.41;4990338;28;20211;-71
2022/03/29 02:46:56;;;;;;;45.57;24.20;;;;;;;6.20;83.18;100758.59;5098089;23;20262;-71
2022/03/29 02:49:23;;;;;;;45.73;25.13;;;;;;;6.21;83.01;100760.31;4990101;28;20234;-71
2022/03/29 02:51:49;;;;;;;49.00;23.97;;;;;;;6.21;82.98;100761.19;4990392;28;20199;-71
2022/03/29 02:54:16;;;;;;;46.10;23.97;;;;;;;6.20;82.82;100758.59;4989955;28;20201;-71
2022/03/29 02:56:43;;;;;;;45.10;24.50;;;;;;;6.18;83.04;100756.03;4989459;28;20273;-70
2022/03/29 02:59:10;;;;;;;45.47;24.67;;;;;;;6.18;82.97;100756.03;4990173;28;20205;-71
2022/03/29 03:01:37;;;;;;;43.23;23.07;;;;;;;6.17;83.21;100762.25;4990319;28;20223;-71
2022/03/29 03:04:05;;;;;;;45.27;23.30;;;;;;;6.17;83.47;100759.59;4989586;28;20207;-70
2022/03/29 03:06:31;;;;;;;44.13;23.07;;;;;;;6.16;82.79;100755.22;4989396;28;20231;-72
2022/03/29 03:08:58;;;;;;;47.30;23.50;;;;;;;6.15;82.94;100753.50;4989987;28;20214;-72
2022/03/29 03:11:24;;;;;;;48.90;24.43;;;;;;;6.12;82.65;100752.78;4989944;28;20211;-73
2022/03/29 03:13:51;;;;;;;49.80;26.63;;;;;;;6.11;82.95;100759.00;4992265;28;20214;-73
2022/03/29 03:16:18;;;;;;;53.80;26.80;;;;;;;6.10;82.79;100752.84;4993550;28;20258;-72
2022/03/29 03:18:45;;;;;;;53.10;27.90;;;;;;;6.10;83.17;100754.63;4993240;28;20203;-73
2022/03/29 03:21:13;;;;;;;54.60;27.90;;;;;;;6.10;82.86;100752.84;4993797;28;20367;-73
2022/03/29 03:23:39;;;;;;;47.90;25.57;;;;;;;6.11;82.71;100751.06;4993637;28;20211;-73
2022/03/29 03:26:06;;;;;;;51.47;26.30;;;;;;;6.11;82.55;100756.34;4993225;28;20241;-73
2022/03/29 03:28:32;;;;;;;51.13;25.33;;;;;;;6.12;82.63;100755.41;4993296;28;20207;-73
2022/03/29 03:30:59;;;;;;;47.37;25.00;;;;;;;6.13;82.82;100757.16;4992901;28;20204;-72
2022/03/29 03:33:26;;;;;;;44.37;24.17;;;;;;;6.13;82.50;100747.44;4992444;28;20207;-72
2022/03/29 03:35:52;;;;;;;50.20;26.17;;;;;;;6.13;82.68;100751.84;4992769;28;20736;-73
2022/03/29 03:38:20;;;;;;;47.70;25.00;;;;;;;6.13;82.68;100746.56;4992619;28;20204;-72
2022/03/29 03:40:47;;;;;;;48.20;25.73;;;;;;;6.13;82.52;100738.63;4992901;28;20235;-70
2022/03/29 03:43:14;;;;;;;45.53;24.63;;;;;;;6.15;82.11;100742.06;4992889;28;20234;-72
2022/03/29 03:45:40;;;;;;;46.87;24.40;;;;;;;6.15;82.42;100732.34;4992750;28;20222;-72
2022/03/29 03:48:08;;;;;;;47.43;25.50;;;;;;;6.16;82.34;100736.72;4992489;28;20295;-72
2022/03/29 03:50:34;;;;;;;39.47;23.07;;;;;;;6.16;82.10;100730.56;4992609;28;20223;-72
2022/03/29 03:53:01;;;;;;;45.47;23.83;;;;;;;6.16;82.22;100725.28;4992958;28;20218;-72
2022/03/29 03:55:29;;;;;;;42.43;25.10;;;;;;;6.14;81.89;100725.34;4992374;28;20203;-73
2022/03/29 03:57:55;;;;;;;45.37;23.90;;;;;;;6.15;81.83;100715.63;4989097;28;20211;-73
2022/03/29 04:00:23;;;;;;;49.80;25.87;;;;;;;6.15;82.06;100718.28;4991816;28;20208;-73
2022/03/29 04:02:50;;;;;;;49.03;26.53;;;;;;;6.15;81.66;100713.84;4991710;28;21006;-73
2022/03/29 04:05:17;;;;;;;50.30;25.13;;;;;;;6.15;81.42;100716.50;4989708;28;20223;-73
2022/03/29 04:07:44;;;;;;;50.00;24.77;;;;;;;6.16;81.70;100714.72;4991336;28;20241;-72
2022/03/29 04:10:11;;;;;;;49.80;25.17;;;;;;;6.15;81.50;100710.34;4992456;28;20544;-73
2022/03/29 04:12:39;;;;;;;53.70;26.57;;;;;;;6.14;81.61;100700.69;4989401;28;20208;-73
2022/03/29 04:15:08;;;;;;;51.40;26.57;;;;;;;6.13;80.93;100704.25;4992132;28;20211;-72
2022/03/29 04:17:35;;;;;;;50.90;25.73;;;;;;;6.14;81.11;100712.13;4991015;28;20226;-72
2022/03/29 04:20:01;;;;;;;48.97;26.17;;;;;;;6.15;81.03;100713.84;4993172;28;20207;-73
2022/03/29 04:22:28;;;;;;;48.60;26.27;;;;;;;6.16;80.78;100698.84;4992038;28;20421;-73
2022/03/29 04:24:55;;;;;;;52.20;27.00;;;;;;;6.15;80.80;100700.63;4991217;28;20195;-71
2022/03/29 04:27:21;;;;;;;50.50;27.30;;;;;;;6.16;80.68;100702.34;4991763;28;20247;-72
2022/03/29 04:29:49;;;;;;;52.17;26.90;;;;;;;6.16;80.76;100694.41;4991606;28;20211;-71
2022/03/29 04:32:15;;;;;;;48.83;24.93;;;;;;;6.16;80.73;100691.78;4991587;28;20211;-73
2022/03/29 04:34:44;;;;;;;55.33;26.83;;;;;;;6.18;80.82;100691.69;4992195;28;20207;-73
2022/03/29 04:37:11;;;;;;;50.43;26.77;;;;;;;6.18;80.38;100681.97;4992408;28;20718;-73
2022/03/29 04:39:38;;;;;;;57.93;26.67;;;;;;;6.20;80.13;100687.22;4991839;28;20661;-72
2022/03/29 04:42:05;;;;;;;54.93;27.80;;;;;;;6.21;80.14;100687.13;4992191;28;20224;-73
2022/03/29 04:44:32;;;;;;;52.17;28.33;;;;;;;6.23;79.85;100677.34;4992026;28;20212;-70
2022/03/29 04:47:00;;;;;;;55.20;28.20;;;;;;;6.25;80.30;100678.16;4991533;28;20239;-72
2022/03/29 04:49:27;;;;;;;55.40;27.90;;;;;;;6.27;80.56;100670.13;4992015;28;20208;-73
2022/03/29 04:51:53;;;;;;;53.63;28.93;;;;;;;6.28;80.69;100677.13;4991988;28;20203;-71
2022/03/29 04:54:20;;;;;;;59.47;28.97;;;;;;;6.30;80.56;100669.13;4991994;28;20327;-72
2022/03/29 04:56:46;;;;;;;56.57;29.90;;;;;;;6.30;80.67;100669.97;4991092;28;20230;-73
2022/03/29 04:59:14;;;;;;;54.27;28.90;;;;;;;6.30;80.89;100664.69;4990965;28;20455;-70
2022/03/29 05:01:40;;;;;;;62.73;29.23;;;;;;;6.31;81.18;100662.91;4991143;28;20263;-73
2022/03/29 05:04:09;;;;;;;57.37;30.00;;;;;;;6.31;80.90;100655.84;4992041;28;20218;-72
2022/03/29 05:06:36;;;;;;;56.60;28.43;;;;;;;6.31;81.36;100654.97;4990972;28;20633;-73
2022/03/29 05:09:03;;;;;;;53.03;28.37;;;;;;;6.31;81.29;100650.53;4991929;28;20237;-73
2022/03/29 05:11:30;;;;;;;52.40;27.33;;;;;;;6.30;81.43;100647.97;4991744;28;20211;-72
2022/03/29 05:13:56;;;;;;;48.40;26.70;;;;;;;6.29;81.34;100647.09;4992077;28;20230;-73
2022/03/29 05:16:23;;;;;;;50.63;27.23;;;;;;;6.28;81.26;100654.19;4990840;28;20493;-73
2022/03/29 05:18:51;;;;;;;51.10;26.47;;;;;;;6.29;81.57;100662.97;4991683;28;20207;-73
2022/03/29 05:21:19;;;;;;;48.20;24.33;;;;;;;6.28;81.32;100646.25;4991288;28;20295;-73
2022/03/29 05:23:45;;;;;;;43.60;23.67;;;;;;;6.27;81.21;100652.47;4991339;28;20234;-73
2022/03/29 05:26:12;;;;;;;47.47;24.00;;;;;;;6.27;81.17;100644.53;4991408;28;20727;-72
2022/03/29 05:28:38;;;;;;;45.47;23.57;;;;;;;6.26;81.45;100656.06;4991382;28;20211;-72
2022/03/29 05:31:05;;;;;;;42.63;22.77;;;;;;;6.26;81.29;100658.72;4991278;28;20203;-72
2022/03/29 05:33:32;;;;;;;39.37;23.40;;;;;;;6.26;81.13;100657.84;4991368;28;20582;-72
2022/03/29 05:35:58;;;;;;;39.80;21.60;;;;;;;6.25;80.91;100659.63;4989907;28;20234;-73
2022/03/29 05:38:26;;;;;;;40.50;22.87;;;;;;;6.25;81.49;100654.34;4990243;28;20212;-72
2022/03/29 05:40:53;;;;;;;43.93;22.23;;;;;;;6.24;81.55;100665.00;4992076;28;20222;-72
2022/03/29 05:43:20;;;;;;;44.10;23.50;;;;;;;6.24;81.27;100662.34;4988580;28;20234;-72
2022/03/29 05:48:51;;;;;;;49.67;24.03;;;;;;;6.23;81.31;100666.78;4990634;28;20227;-72
2022/03/29 05:51:18;;;;;;;39.10;21.70;;;;;;;6.21;80.78;100670.41;4990925;28;20218;-73
2022/03/29 05:53:46;;;;;;;36.87;20.80;;;;;;;6.21;81.24;100667.78;4991157;28;20307;-73
2022/03/29 05:56:12;;;;;;;43.43;24.10;;;;;;;6.21;81.10;100663.34;4989887;28;20223;-72
2022/03/29 05:58:39;;;;;;;44.17;22.67;;;;;;;6.19;81.29;100667.84;4990695;28;20223;-73
2022/03/29 06:01:05;;;;;;;41.87;22.43;;;;;;;6.19;81.31;100661.69;4991658;28;20210;-72
2022/03/29 06:03:32;;;;;;;35.43;20.90;;;;;;;6.19;81.24;100667.84;4990359;28;20310;-73
2022/03/29 06:05:58;;;;;;;40.73;22.47;;;;;;;6.20;81.52;100676.63;4991127;28;20732;-72
2022/03/29 06:08:25;;;;;;;44.37;22.90;;;;;;;6.21;81.33;100673.91;4990238;28;20215;-72
2022/03/29 06:10:53;;;;;;;39.43;22.13;;;;;;;6.22;81.19;100680.06;4991204;28;20212;-72
2022/03/29 06:13:20;;;;;;;38.20;21.43;;;;;;;6.22;81.40;100674.78;4988062;28;20262;-72
2022/03/29 06:15:47;;;;;;;43.70;22.77;;;;;;;6.21;81.14;100678.34;4989202;28;20224;-72
2022/03/29 06:18:13;;;;;;;44.17;23.33;;;;;;;6.21;81.25;100676.56;4987922;28;20199;-73
2022/03/29 06:20:40;;;;;;;49.57;23.33;;;;;;;6.20;81.04;100677.50;4987162;28;20371;-73
2022/03/29 06:23:07;;;;;;;43.57;22.23;;;;;;;6.19;80.74;100673.13;4991462;28;20242;-72
2022/03/29 06:25:34;;;;;;;47.63;23.47;;;;;;;6.17;80.64;100685.56;4990142;28;20212;-73
2022/03/29 06:28:02;;;;;;;49.10;22.97;;;;;;;6.16;80.23;100675.91;4988318;28;20216;-73
2022/03/29 06:30:28;;;;;;;55.23;25.97;;;;;;;6.15;80.42;100676.81;4990199;28;20211;-72
2022/03/29 06:32:55;;;;;;;57.00;26.90;;;;;;;6.15;80.51;100681.25;4989632;28;20211;-71
2022/03/29 06:35:23;;;;;;;50.70;23.70;;;;;;;6.13;80.25;100681.31;4989810;28;20223;-72
2022/03/29 06:37:51;;;;;;;51.00;25.67;;;;;;;6.13;79.83;100691.03;4989510;28;20211;-71
2022/03/29 06:40:17;;;;;;;47.43;25.30;;;;;;;6.10;79.71;100683.25;4990126;28;20290;-72
2022/03/29 06:42:45;;;;;;;52.80;26.27;;;;;;;6.09;79.92;100677.09;4989367;28;20238;-71
2022/03/29 06:45:12;;;;;;;49.50;25.70;;;;;;;6.11;79.78;100684.94;4990811;28;20213;-72
2022/03/29 06:47:41;;;;;;;48.20;24.70;;;;;;;6.10;79.26;100681.44;4988484;28;20235;-72
2022/03/29 06:50:09;;;;;;;52.30;24.20;;;;;;;6.11;79.32;100680.53;4989255;28;20459;-72
2022/03/29 06:52:36;;;;;;;54.37;27.57;;;;;;;6.11;79.16;100684.94;4989071;28;20227;-72
2022/03/29 06:55:03;;;;;;;40.93;22.93;;;;;;;6.13;79.14;100681.31;4990720;28;21099;-72
2022/03/29 06:57:30;;;;;;;44.20;21.33;;;;;;;6.15;78.84;100692.69;4989377;28;20223;-72
2022/03/29 06:59:56;;;;;;;40.23;22.07;;;;;;;6.15;78.31;100684.75;4989624;28;20204;-72
2022/03/29 07:02:24;;;;;;;40.97;22.23;;;;;;;6.16;78.32;100686.47;4990134;28;20231;-72
2022/03/29 07:04:51;;;;;;;43.03;22.80;;;;;;;6.15;78.25;100690.03;4989063;28;20812;-72
2022/03/29 07:07:18;;;;;;;43.87;22.53;;;;;;;6.15;78.13;100682.13;4989775;28;20295;-72
2022/03/29 07:12:31;;;;;;;44.43;23.00;;;;;;;6.16;78.08;100678.53;4988299;28;20282;-72
2022/03/29 07:14:58;;;;;;;45.50;23.10;;;;;;;6.17;78.13;100674.97;4990616;28;20665;-73
2022/03/29 07:17:26;;;;;;;36.93;20.60;;;;;;;6.21;78.30;100673.91;4989476;28;20219;-71
2022/03/29 07:19:52;;;;;;;45.43;23.50;;;;;;;6.24;77.68;100679.06;4990351;28;20207;-73
2022/03/29 07:22:19;;;;;;;44.67;22.43;;;;;;;6.27;78.16;100678.91;4990139;28;20207;-72
2022/03/29 07:24:46;;;;;;;46.07;23.43;;;;;;;6.32;77.92;100677.84;4989374;28;20211;-73
2022/03/29 07:27:12;;;;;;;47.80;22.97;;;;;;;6.34;77.67;100671.56;4988497;28;20731;-72
2022/03/29 07:29:39;;;;;;;44.60;23.17;;;;;;;6.37;77.72;100667.94;4990243;28;20234;-71
2022/03/29 07:32:06;;;;;;;46.37;22.77;;;;;;;6.40;77.74;100670.44;4995110;28;20231;-73
2022/03/29 07:34:35;;;;;;;45.20;22.70;;;;;;;6.44;77.46;100672.88;4993299;28;20302;-72
2022/03/29 07:37:02;;;;;;;41.70;22.80;;;;;;;6.46;77.67;100664.84;4992899;28;20623;-72
2022/03/29 07:39:29;;;;;;;44.20;23.17;;;;;;;6.48;77.13;100671.78;4993568;28;20208;-72
2022/03/29 07:41:56;;;;;;;44.60;23.30;;;;;;;6.50;76.79;100666.44;4994211;28;20207;-73
2022/03/29 07:44:23;;;;;;;45.03;24.40;;;;;;;6.50;77.01;100654.06;4990756;28;20232;-72
2022/03/29 07:46:50;;;;;;;43.97;23.00;;;;;;;6.53;76.66;100661.00;4991025;28;20246;-73
2022/03/29 07:49:17;;;;;;;44.17;23.23;;;;;;;6.55;76.77;100653.84;4989736;28;20370;-71
2022/03/29 07:51:45;;;;;;;43.73;24.20;;;;;;;6.56;76.89;100653.78;4989530;28;20204;-72
2022/03/29 07:54:11;;;;;;;45.67;23.07;;;;;;;6.60;76.24;100657.16;4991177;28;20203;-72
2022/03/29 07:56:38;;;;;;;44.23;24.63;;;;;;;6.64;76.16;100653.41;4989195;28;20277;-73
2022/03/29 07:59:04;;;;;;;47.03;22.73;;;;;;;6.67;76.02;100655.91;4989746;28;20226;-72
2022/03/29 08:01:31;;;;;;;43.73;23.50;;;;;;;6.72;75.90;100655.72;4992823;28;20203;-72
2022/03/29 08:03:57;;;;;;;55.73;26.83;;;;;;;6.74;76.24;100653.84;4993887;28;20242;-70
2022/03/29 08:06:24;;;;;;;45.97;25.17;;;;;;;6.76;76.07;100650.19;4991728;28;20235;-73
2022/03/29 08:08:53;;;;;;;53.40;25.57;;;;;;;6.82;75.79;100644.59;4993659;28;20219;-72
2022/03/29 08:11:20;;;;;;;48.47;25.53;;;;;;;6.86;75.61;100642.66;4994019;28;20303;-71
2022/03/29 08:13:47;;;;;;;48.00;24.57;;;;;;;6.91;75.82;100638.00;4993105;28;20219;-72
2022/03/29 08:16:14;;;;;;;49.00;26.23;;;;;;;6.95;75.38;100636.94;4991937;28;20351;-72
2022/03/29 08:18:40;;;;;;;49.27;25.70;;;;;;;6.99;75.65;100632.34;4992525;28;20799;-73
2022/03/29 08:21:48;;;;;;;46.80;24.57;;;;;;;7.02;75.20;100634.84;4993237;28;21382;-72
2022/03/29 08:23:55;;;;;;;50.17;26.67;;;;;;;7.04;75.07;100636.47;4992777;28;20684;-71
2022/03/29 08:26:22;;;;;;;52.87;26.80;;;;;;;7.07;74.41;100635.47;4992502;28;20596;-72
2022/03/29 08:28:50;;;;;;;47.97;25.20;;;;;;;7.08;74.62;100638.03;4992859;28;20207;-71
2022/03/29 08:31:17;;;;;;;45.43;24.00;;;;;;;7.09;74.74;100637.13;4993587;28;20238;-73
2022/03/29 08:33:44;;;;;;;48.67;25.40;;;;;;;7.10;74.41;100633.53;4992576;28;20294;-71
2022/03/29 08:36:10;;;;;;;50.23;26.07;;;;;;;7.12;74.42;100638.75;4993847;28;20223;-72
2022/03/29 08:38:37;;;;;;;54.03;25.60;;;;;;;7.13;74.02;100635.19;4992699;28;20204;-72
2022/03/29 08:41:06;;;;;;;43.77;23.63;;;;;;;7.14;74.42;100636.91;4993083;28;20691;-72
2022/03/29 08:43:33;;;;;;;48.27;24.40;;;;;;;7.14;74.26;100635.09;4992735;28;20231;-71
2022/03/29 08:46:00;;;;;;;54.00;25.40;;;;;;;7.14;74.03;100634.25;4993822;28;20239;-71
2022/03/29 08:48:29;;;;;;;43.43;24.37;;;;;;;7.15;73.51;100628.88;4992470;28;20299;-71
2022/03/29 08:50:57;;;;;;;42.83;22.47;;;;;;;7.16;73.45;100635.91;4993779;28;20233;-72
2022/03/29 08:53:24;;;;;;;48.17;23.87;;;;;;;7.19;73.60;100637.50;4990035;28;20208;-71
2022/03/29 08:55:51;;;;;;;48.60;25.33;;;;;;;7.20;72.79;100636.56;4993015;28;20269;-71
2022/03/29 08:58:21;;;;;;;44.80;24.10;;;;;;;7.20;73.44;100623.31;4992952;28;20215;-72
2022/03/29 09:00:49;;;;;;;48.60;25.13;;;;;;;7.23;72.74;100624.03;4992341;28;20219;-71
2022/03/29 09:03:17;;;;;;;50.63;24.80;;;;;;;7.27;72.88;100632.69;4993858;28;20235;-72
2022/03/29 09:05:44;;;;;;;52.80;26.57;;;;;;;7.29;72.21;100634.34;4992664;28;20235;-71
2022/03/29 09:08:13;;;;;;;55.10;27.20;;;;;;;7.30;72.45;100622.81;4992761;28;20214;-72
2022/03/29 09:10:42;;;;;;;55.77;27.57;;;;;;;7.32;72.35;100628.91;4997636;28;20200;-75
2022/03/29 09:13:16;;;;;;;54.30;27.33;;;;;;;7.35;72.45;100625.22;4990667;28;20211;-75
2022/03/29 09:15:44;;;;;;;52.47;27.53;;;;;;;7.38;72.30;100624.19;4989137;28;20231;-74
2022/03/29 09:18:11;;;;;;;55.47;28.03;;;;;;;7.40;72.30;100623.19;4989925;28;20214;-74
2022/03/29 09:20:38;;;;;;;61.77;28.97;;;;;;;7.42;72.67;100612.50;4989954;28;20206;-74
2022/03/29 09:23:05;;;;;;;58.57;28.90;;;;;;;7.46;71.57;100612.28;4989196;28;20239;-75
2022/03/29 09:25:36;;;;;;;56.33;28.20;;;;;;;7.48;71.39;100615.72;4990107;28;20585;-74
2022/03/29 09:28:05;;;;;;;57.30;28.07;;;;;;;7.55;71.93;100613.59;4989769;28;20219;-75
2022/03/29 09:30:38;;;;;;;62.13;29.93;;;;;;;7.60;71.76;100612.44;4990324;28;20195;-75
2022/03/29 09:33:08;;;;;;;57.70;27.23;;;;;;;7.67;71.42;100618.28;4990327;28;20250;-74
2022/03/29 09:35:37;;;;;;;60.20;28.60;;;;;;;7.71;71.30;100611.88;4990227;28;20207;-74
2022/03/29 09:38:21;;;;;;;58.43;27.70;;;;;;;7.77;70.90;100621.31;4989225;28;20203;-74
2022/03/29 09:40:47;;;;;;;54.33;27.23;;;;;;;7.80;71.07;100607.88;4989931;28;20208;-75
2022/03/29 09:43:14;;;;;;;58.30;28.73;;;;;;;7.84;70.99;100610.31;4990247;28;20231;-75
2022/03/29 09:45:43;;;;;;;47.00;25.50;;;;;;;7.87;71.08;100602.19;4989459;28;20204;-75
2022/03/29 09:48:27;;;;;;;52.40;25.77;;;;;;;7.92;70.20;100599.28;4989603;28;20211;-75
2022/03/29 09:50:55;;;;;;;46.80;25.50;;;;;;;7.95;70.40;100597.31;4989739;28;20211;-75
2022/03/29 09:53:36;;;;;;;45.03;24.60;;;;;;;8.00;70.55;100599.75;4990070;28;20208;-74
2022/03/29 09:56:03;;;;;;;50.27;25.37;;;;;;;8.06;69.85;100601.22;4985591;28;20232;-73
2022/03/29 09:58:30;;;;;;;45.20;22.73;;;;;;;8.10;69.79;100594.78;5000764;28;20237;-73
2022/03/29 10:00:57;;;;;;;43.03;22.53;;;;;;;8.13;70.07;100591.97;4999530;28;20203;-73
2022/03/29 10:03:26;;;;;;;40.30;21.67;;;;;;;8.18;69.99;100585.50;4990976;28;20228;-73
2022/03/29 10:05:58;;;;;;;43.87;21.47;;;;;;;8.24;69.88;100585.13;4991952;28;20219;-73
2022/03/29 10:11:13;;;;;;;38.90;22.67;;;;;;;8.31;68.31;100597.13;5009093;28;20602;-73
2022/03/29 10:13:40;;;;;;;40.33;22.30;;;;;;;8.35;68.35;100598.72;5009219;28;20214;-73
2022/03/29 10:16:12;;;;;;;39.83;21.30;;;;;;;8.40;68.51;100597.63;5008712;28;20231;-72
2022/03/29 10:18:41;;;;;;;35.57;20.77;;;;;;;8.46;68.02;100586.63;4987250;28;20204;-73
2022/03/29 10:21:11;;;;;;;41.03;22.70;;;;;;;8.53;67.87;100593.34;4983839;28;20675;-73
2022/03/29 10:23:39;;;;;;;38.57;21.07;;;;;;;8.59;67.90;100579.72;4982063;28;20224;-72
2022/03/29 10:26:07;;;;;;;38.97;21.00;;;;;;;8.64;66.97;100582.97;4998800;28;20222;-72
2022/03/29 10:28:33;;;;;;;42.03;20.93;;;;;;;8.72;67.89;100578.09;5004393;28;20211;-73
2022/03/29 10:31:00;;;;;;;34.00;20.70;;;;;;;8.79;67.35;100571.47;4991223;28;20655;-73
2022/03/29 10:33:30;;;;;;;35.60;21.53;;;;;;;8.86;67.42;100578.16;4996509;28;20195;-73
2022/03/29 10:36:10;;;;;;;37.87;21.63;;;;;;;8.92;67.35;100567.19;4988831;28;20728;-73
2022/03/29 10:38:59;;;;;;;36.70;21.00;;;;;;;8.98;66.20;100558.84;4988178;28;20286;-73
2022/03/29 10:41:51;;;;;;;38.83;21.73;;;;;;;9.07;66.65;100561.91;4987334;28;20755;-72
2022/03/29 10:44:18;;;;;;;32.20;19.70;;;;;;;9.16;66.56;100558.69;4990211;28;20727;-73
2022/03/29 10:46:47;;;;;;;41.13;20.93;;;;;;;9.23;66.07;100555.59;4999492;28;20241;-73
2022/03/29 10:49:22;;;;;;;36.37;19.73;;;;;;;9.33;65.62;100555.91;4996950;28;20231;-73
2022/03/29 10:51:51;;;;;;;41.30;20.73;;;;;;;9.42;65.21;100551.84;4988718;28;20885;-72
2022/03/29 10:54:25;;;;;;;34.83;20.30;;;;;;;9.48;64.67;100544.38;4994074;28;20209;-73
2022/03/29 10:57:00;;;;;;;35.43;20.83;;;;;;;9.56;64.83;100546.56;4992169;28;20223;-72
2022/03/29 10:59:26;;;;;;;36.77;20.97;;;;;;;9.63;64.89;100545.25;4992434;28;20207;-72
2022/03/29 11:02:14;;;;;;;38.60;20.30;;;;;;;9.71;63.87;100534.97;4992542;28;20297;-72
2022/03/29 11:05:02;;;;;;;36.80;21.47;;;;;;;9.79;63.40;100532.72;4990669;28;20282;-73
2022/03/29 11:07:30;;;;;;;36.63;21.40;;;;;;;9.87;63.28;100521.56;4982057;28;20223;-72
2022/03/29 11:10:12;;;;;;;41.03;22.40;;;;;;;9.95;63.01;100529.94;4992458;28;20672;-73
2022/03/29 11:12:46;;;;;;;41.90;23.70;;;;;;;10.00;62.75;100525.19;4989648;28;20211;-72
2022/03/29 11:15:47;;;;;;;40.97;22.97;;;;;;;10.06;62.21;100516.81;4990715;28;20221;-73
2022/03/29 11:18:40;;;;;;;36.27;22.80;;;;;;;10.20;62.60;100521.31;4988865;28;20294;-73
2022/03/29 11:21:07;;;;;;;40.30;22.90;;;;;;;10.29;62.15;100513.59;4977150;28;21065;-73
2022/03/29 11:23:37;;;;;;;41.57;23.07;;;;;;;10.38;62.12;100505.03;4990424;28;20214;-73
2022/03/29 11:26:10;;;;;;;44.37;24.50;;;;;;;10.46;61.29;100509.81;4991258;28;20223;-72
2022/03/29 11:28:37;;;;;;;45.43;25.97;;;;;;;10.48;60.84;100509.72;4990314;28;20254;-72
2022/03/29 11:31:04;;;;;;;42.43;24.00;;;;;;;10.49;60.06;100504.31;4991711;28;20211;-72
2022/03/29 11:33:32;;;;;;;43.30;25.43;;;;;;;10.49;59.83;100496.31;4991052;28;20205;-72